EGLC Airport Information

Runway Information
Runway 10 Length 4948 ft width 98 ft
Elevation 16 ft Threshold 358 ft Heading 93
Runway 28 Length 4948 ft Width 98 ft
Elevation 19 ft Threshold 211 ft Heading 273
Airport Frequencies
Type APP Name APP Frequency 132.7 MHZ
Type ATIS Name ATIS Frequency 136.35 MHZ
Type GND Name GND Frequency 121.825 MHZ
Type TWR Name TWR Frequency 118.075 MHZ
Airport Navaids
Type NDB Name City Frequency 322 KHZ
Airport Weather Information & NOTAM
ADDS - METARS form results

(0716 UTC 01 June 2020)
Data provider http://aviationweather.gov/metar/data/
 
METAR text: EGLC 010650Z AUTO VRB05KT 9999 NCD 15/10 Q1023
Conditions at: EGLC (LONDON CITY AIRP, GB) observed 0650 UTC 01 June 2020
Temperature: 15.0°C (59°F)
Dewpoint: 10.0°C (50°F) [RH = 72%]
Pressure (altimeter): 30.21 inches Hg (1023.0 mb)
Winds: variable direction winds at 6 MPH (5 knots; 2.6 m/s)
Visibility: 6 or more miles (10+ km)
Ceiling: at least 12,000 feet AGL
Clouds: sky clear below 12,000 feet AGL
Weather: no significant weather observed at this time

METAR text: EGLC 010620Z AUTO 02004KT 320V100 9999 NCD 14/10 Q1023
Conditions at: EGLC (LONDON CITY AIRP, GB) observed 0620 UTC 01 June 2020
Temperature: 14.0°C (57°F)
Dewpoint: 10.0°C (50°F) [RH = 77%]
Pressure (altimeter): 30.21 inches Hg (1023.0 mb)
Winds: from the NNE (20 degrees) at 5 MPH (4 knots; 2.1 m/s)
Visibility: 6 or more miles (10+ km)
Ceiling: at least 12,000 feet AGL
Clouds: sky clear below 12,000 feet AGL
Weather: no significant weather observed at this time

Forecast for: EGLC (LONDON CITY AIRP, GB)
Text: TAF EGLC 010156Z 0103/0112 02006KT CAVOK
Forecast period: 0300 to 0900 UTC 01 June 2020
Forecast type: FROM: standard forecast or significant change
Winds: from the NNE (20 degrees) at 7 MPH (6 knots; 3.1 m/s)
Visibility: 6 or more miles 10+ km)
Ceiling: unknown
Clouds: missing
Weather: NSW  (no significant weather)
Text: BECMG 0109/0112 08010KT
Forecast period: 0900 to 1200 UTC 01 June 2020
Forecast type: BECOMING: Conditions expected to become as follows by 1200 UTC 01 June 2020
Winds: from the E (80 degrees) at 12 MPH (10 knots; 5.1 m/s)
Visibility: 6 or more miles 10+ km)
Ceiling: unknown
Clouds: missing
Weather: NSW  (no significant weather)